createdAt,value
2022-11-20T03:44:02.395Z,11.82
2022-11-20T03:48:55.632Z,9.98
2022-11-20T03:53:55.644Z,11.25
2022-11-20T08:23:34.951Z,16.00
2022-11-20T10:37:00.514Z,23.00
2022-11-20T10:42:10.217Z,23.50
2022-11-20T10:47:10.257Z,24.13
2022-11-20T10:52:11.314Z,23.50
2022-11-20T10:57:12.346Z,23.30
2022-11-20T11:02:06.510Z,24.23
2022-11-20T11:07:03.730Z,25.30
2022-11-20T11:11:55.030Z,25.25
2022-11-20T11:16:55.817Z,24.15
2022-11-20T11:21:58.198Z,25.83
2022-11-20T11:26:59.422Z,26.10
2022-11-20T11:31:51.067Z,26.20
2022-11-20T11:36:42.336Z,26.35
2022-11-20T11:41:39.328Z,26.30
2022-11-20T11:46:38.416Z,26.13
2022-11-20T11:51:41.958Z,26.75
2022-11-20T11:56:43.394Z,27.10
2022-11-20T12:01:41.863Z,26.92
2022-11-20T12:06:39.193Z,25.45
2022-11-20T12:11:42.960Z,25.48
2022-11-20T12:16:39.740Z,29.42
2022-11-20T12:21:43.320Z,27.85
2022-11-20T12:26:58.000Z,25.17
2022-11-20T12:32:07.085Z,27.20
2022-11-20T12:37:32.863Z,27.40
2022-11-20T12:42:57.393Z,28.70
2022-11-20T12:48:15.294Z,31.42
2022-11-20T12:53:15.638Z,32.95
2022-11-20T12:58:18.826Z,33.53
2022-11-20T13:03:41.526Z,32.55
2022-11-20T13:08:38.124Z,35.58
2022-11-20T13:13:44.561Z,32.05
2022-11-20T13:18:44.233Z,35.53
2022-11-20T13:23:39.747Z,36.25
2022-11-20T13:28:54.557Z,32.92
2022-11-20T13:33:50.528Z,39.10
2022-11-20T13:38:55.429Z,34.75
2022-11-20T13:43:53.806Z,37.00
2022-11-20T13:48:58.217Z,35.55
2022-11-20T13:54:18.892Z,36.65
2022-11-20T13:59:42.762Z,38.58
2022-11-20T14:04:44.804Z,35.97
2022-11-20T14:09:37.983Z,38.42
2022-11-20T14:14:53.282Z,35.95
2022-11-20T14:19:49.759Z,35.60
2022-11-20T14:24:43.758Z,38.65
2022-11-20T14:29:43.013Z,37.28
2022-11-20T14:34:36.836Z,39.00
2022-11-20T14:39:36.969Z,38.00
2022-11-20T14:44:32.688Z,36.13
2022-11-20T14:49:26.964Z,39.55
2022-11-20T14:54:21.651Z,39.83
2022-11-20T14:59:16.008Z,40.25
2022-11-20T15:04:14.308Z,38.83
2022-11-20T15:09:10.660Z,36.65
2022-11-20T15:14:18.401Z,40.50
2022-11-20T15:19:22.652Z,40.92
2022-11-20T15:24:17.160Z,37.60
2022-11-20T15:29:22.548Z,38.97
2022-11-20T15:34:18.995Z,40.00
2022-11-20T15:39:16.033Z,39.15
2022-11-20T15:44:13.215Z,39.78
2022-11-20T15:49:05.522Z,35.97
2022-11-20T15:54:00.908Z,51.50
2022-11-20T15:58:52.152Z,37.50
2022-11-20T16:03:50.394Z,38.28
2022-11-20T16:08:43.989Z,38.05
2022-11-20T16:13:48.797Z,37.13
2022-11-20T16:18:41.756Z,37.03
2022-11-20T16:23:38.286Z,41.00
2022-11-20T16:28:33.911Z,37.75
2022-11-20T16:33:28.922Z,38.42
2022-11-20T16:38:22.798Z,37.38
2022-11-20T16:43:20.362Z,40.10
2022-11-20T16:48:18.606Z,35.28
2022-11-20T16:53:14.585Z,35.58
2022-11-20T16:58:11.852Z,31.02
2022-11-20T17:03:05.657Z,33.10
2022-11-20T17:07:56.901Z,33.22
2022-11-20T17:12:53.382Z,34.03
2022-11-20T17:17:44.479Z,49.40
2022-11-20T17:22:38.337Z,39.78
2022-11-20T17:27:31.697Z,39.63
2022-11-20T17:32:22.962Z,39.65
2022-11-20T17:37:14.618Z,40.83
2022-11-20T17:42:21.407Z,39.55
2022-11-20T17:47:14.435Z,38.25
2022-11-20T17:52:11.643Z,39.25
2022-11-20T17:57:15.111Z,37.13
2022-11-20T18:02:09.093Z,36.13
2022-11-20T18:07:00.482Z,50.55
2022-11-20T18:11:51.608Z,51.03
2022-11-20T18:16:46.704Z,48.38
2022-11-20T18:21:46.740Z,47.72
2022-11-20T18:26:44.264Z,49.00
2022-11-20T18:31:42.658Z,51.15
2022-11-20T18:36:36.017Z,52.60
2022-11-20T18:41:46.809Z,51.50
2022-11-20T18:46:37.722Z,51.50
2022-11-20T18:51:29.181Z,51.47
2022-11-20T18:56:20.892Z,49.75
2022-11-20T19:01:17.575Z,47.67
2022-11-20T19:06:09.197Z,51.33
2022-11-20T19:11:14.830Z,53.80
2022-11-20T19:16:15.667Z,54.97
2022-11-20T19:21:19.359Z,52.45
2022-11-20T19:26:23.477Z,63.47
2022-11-20T19:31:20.252Z,59.95
2022-11-20T19:36:27.194Z,63.67
2022-11-20T19:41:19.973Z,60.63
2022-11-20T19:46:11.698Z,68.45
2022-11-20T19:51:17.660Z,66.78
2022-11-20T19:56:14.406Z,64.80
2022-11-20T20:01:11.049Z,64.72
2022-11-20T20:06:11.757Z,66.03
2022-11-20T20:11:03.484Z,69.15
2022-11-20T20:15:59.996Z,66.25
2022-11-20T20:20:51.342Z,62.08
2022-11-20T20:25:43.531Z,60.08
2022-11-20T20:30:37.386Z,57.73
2022-11-20T20:35:31.747Z,55.13
2022-11-20T20:40:25.810Z,57.70
2022-11-20T20:45:16.871Z,55.03
2022-11-20T20:50:09.702Z,52.33
2022-11-20T20:55:05.564Z,52.50
2022-11-20T20:59:56.973Z,54.38
2022-11-20T21:04:50.281Z,53.05
2022-11-20T21:09:44.255Z,53.55
2022-11-20T21:14:39.058Z,49.20
2022-11-20T21:19:30.723Z,50.20
2022-11-20T21:24:25.154Z,51.27
2022-11-20T21:29:17.953Z,49.25
2022-11-20T21:34:16.783Z,46.17
2022-11-20T21:39:07.974Z,42.38
2022-11-20T21:49:20.555Z,40.60
2022-11-20T21:54:14.911Z,40.47
2022-11-20T21:59:09.350Z,40.27
2022-11-20T22:04:02.133Z,40.47
2022-11-20T22:08:56.168Z,39.97
2022-11-20T22:14:01.737Z,42.50
2022-11-20T22:18:54.190Z,37.50
2022-11-20T22:23:44.944Z,36.30
2022-11-20T22:28:39.221Z,20.60
2022-11-20T22:33:31.404Z,18.30
2022-11-20T22:38:25.440Z,14.38
2022-11-20T22:43:22.757Z,13.73
2022-11-20T22:48:17.730Z,15.38
2022-11-20T22:53:14.193Z,14.23
2022-11-20T22:58:10.186Z,11.30
2022-11-20T23:03:02.207Z,8.20
2022-11-20T23:07:56.228Z,6.72
2022-11-20T23:12:50.228Z,5.32
2022-11-20T23:17:46.011Z,4.80
2022-11-20T23:22:38.179Z,4.25
2022-11-20T23:27:34.858Z,3.00
2022-11-20T23:32:32.628Z,1.98
2022-11-20T23:37:24.685Z,2.53
2022-11-20T23:42:16.926Z,3.90
2022-11-20T23:47:15.134Z,3.70
2022-11-20T23:52:06.667Z,3.65
2022-11-20T23:56:57.859Z,3.67
